createdAt,value
2019-02-21T00:01:57.545Z,4.40
2019-02-21T00:06:58.112Z,4.30
2019-02-21T00:09:28.345Z,4.20
2019-02-21T00:11:58.634Z,4.10
2019-02-21T00:14:29.194Z,4.00
2019-02-21T00:17:00.624Z,3.90
2019-02-21T00:19:31.944Z,3.90
2019-02-21T00:24:31.906Z,3.60
2019-02-21T00:27:03.673Z,3.40
2019-02-21T00:29:34.313Z,3.50
2019-02-21T00:32:04.747Z,3.50
2019-02-21T00:37:05.872Z,3.30
2019-02-21T00:39:36.265Z,3.20
2019-02-21T00:42:06.626Z,3.10
2019-02-21T00:47:09.112Z,3.00
2019-02-21T00:49:39.632Z,2.90
2019-02-21T00:52:09.986Z,2.90
2019-02-21T00:54:40.273Z,2.90
2019-02-21T00:57:10.633Z,2.80
2019-02-21T00:59:41.033Z,2.70
2019-02-21T01:02:11.345Z,2.70
2019-02-21T01:04:41.903Z,2.60
2019-02-21T01:07:12.517Z,2.60
2019-02-21T01:09:42.704Z,2.50
2019-02-21T01:12:13.195Z,2.50
2019-02-21T01:14:43.584Z,2.10
2019-02-21T01:17:14.105Z,2.40
2019-02-21T01:19:44.232Z,2.30
2019-02-21T01:22:14.625Z,2.30
2019-02-21T01:24:44.989Z,2.40
2019-02-21T01:27:15.384Z,2.40
2019-02-21T01:29:45.826Z,2.30
2019-02-21T01:34:46.185Z,2.30
2019-02-21T01:37:16.506Z,2.40
2019-02-21T01:39:47.031Z,2.30
2019-02-21T01:42:17.505Z,2.30
2019-02-21T01:44:47.872Z,2.10
2019-02-21T01:47:18.186Z,2.30
2019-02-21T01:49:48.468Z,2.20
2019-02-21T01:52:19.032Z,2.10
2019-02-21T01:54:49.144Z,2.10
2019-02-21T01:57:19.344Z,2.20
2019-02-21T02:02:19.405Z,2.10
2019-02-21T02:04:49.688Z,2.10
2019-02-21T02:07:19.881Z,2.10
2019-02-21T02:09:51.366Z,2.00
2019-02-21T02:12:21.728Z,2.10
2019-02-21T02:14:51.763Z,2.10
2019-02-21T02:17:21.838Z,2.10
2019-02-21T02:19:51.747Z,2.20
2019-02-21T02:22:21.911Z,2.20
2019-02-21T02:24:51.867Z,2.20
2019-02-21T02:27:22.067Z,2.50
2019-02-21T02:29:51.973Z,2.20
2019-02-21T02:32:22.151Z,2.30
2019-02-21T02:34:52.223Z,2.30
2019-02-21T02:37:22.759Z,2.40
2019-02-21T02:39:53.079Z,2.30
2019-02-21T02:42:23.115Z,2.50
2019-02-21T02:44:53.275Z,2.40
2019-02-21T02:47:23.757Z,2.50
2019-02-21T02:49:54.680Z,2.50
2019-02-21T02:52:24.776Z,2.70
2019-02-21T02:54:54.927Z,2.70
2019-02-21T02:57:25.167Z,3.50
2019-02-21T02:59:55.281Z,2.80
2019-02-21T03:02:25.228Z,3.70
2019-02-21T03:04:55.321Z,3.00
2019-02-21T03:07:25.419Z,3.20
2019-02-21T03:09:55.548Z,3.20
2019-02-21T03:12:25.795Z,3.30
2019-02-21T03:14:55.994Z,3.50
2019-02-21T03:17:27.334Z,3.40
2019-02-21T03:19:57.532Z,3.40
2019-02-21T03:22:27.710Z,3.50
2019-02-21T03:24:58.080Z,3.60
2019-02-21T03:27:28.174Z,3.60
2019-02-21T03:32:27.921Z,3.70
2019-02-21T03:34:57.956Z,3.80
2019-02-21T03:37:28.157Z,3.80
2019-02-21T03:39:58.369Z,3.90
2019-02-21T03:42:28.527Z,3.90
2019-02-21T03:44:58.850Z,3.90
2019-02-21T03:47:28.883Z,4.00
2019-02-21T03:49:59.101Z,4.00
2019-02-21T03:52:29.260Z,4.10
2019-02-21T03:55:00.570Z,4.20
2019-02-21T03:57:30.850Z,4.30
2019-02-21T04:00:01.386Z,4.40
2019-02-21T04:02:31.851Z,4.20
2019-02-21T04:05:02.103Z,4.30
2019-02-21T04:07:32.074Z,4.20
2019-02-21T04:10:02.370Z,4.30
2019-02-21T04:12:32.758Z,4.30
2019-02-21T04:15:03.471Z,4.30
2019-02-21T04:17:34.881Z,4.30
2019-02-21T04:20:06.723Z,4.40
2019-02-21T04:22:36.858Z,4.40
2019-02-21T04:25:07.881Z,4.40
2019-02-21T04:27:37.992Z,4.40
2019-02-21T04:30:09.248Z,4.50
2019-02-21T04:32:39.759Z,4.50
2019-02-21T04:40:10.894Z,4.60
2019-02-21T04:42:41.042Z,4.60
2019-02-21T04:47:40.805Z,4.60
2019-02-21T04:50:10.874Z,4.60
2019-02-21T04:52:41.115Z,4.60
2019-02-21T04:55:11.453Z,4.70
2019-02-21T04:57:41.743Z,4.70
2019-02-21T05:00:13.261Z,4.70
2019-02-21T05:02:43.267Z,4.90
2019-02-21T05:05:13.581Z,4.60
2019-02-21T05:07:43.683Z,4.70
2019-02-21T05:10:13.943Z,4.70
2019-02-21T05:12:44.121Z,4.60
2019-02-21T05:15:14.473Z,4.70
2019-02-21T05:17:44.539Z,5.00
2019-02-21T05:20:14.654Z,4.70
2019-02-21T05:22:45.012Z,4.80
2019-02-21T05:25:16.442Z,4.70
2019-02-21T05:27:47.562Z,4.70
2019-02-21T05:30:19.654Z,4.70
2019-02-21T05:35:25.633Z,5.30
2019-02-21T05:40:45.609Z,4.70
2019-02-21T05:43:23.294Z,4.60
2019-02-21T05:46:10.826Z,4.70
2019-02-21T05:48:45.268Z,4.70
2019-02-21T05:53:51.140Z,4.60
2019-02-21T05:56:34.690Z,4.70
2019-02-21T05:59:22.894Z,4.80
2019-02-21T06:02:03.467Z,5.10
2019-02-21T06:04:53.431Z,4.70
2019-02-21T06:07:37.286Z,4.80
2019-02-21T06:10:12.004Z,4.80
2019-02-21T06:13:00.136Z,4.70
2019-02-21T06:15:37.941Z,5.00
2019-02-21T06:18:13.147Z,4.80
2019-02-21T06:20:44.780Z,4.90
2019-02-21T06:23:24.886Z,4.90
2019-02-21T06:25:59.276Z,5.70
2019-02-21T06:28:34.164Z,5.00
2019-02-21T06:31:06.405Z,4.90
2019-02-21T06:33:36.512Z,4.90
2019-02-21T06:36:06.536Z,4.90
2019-02-21T06:38:36.745Z,5.40
2019-02-21T06:41:06.781Z,5.00
2019-02-21T06:43:36.918Z,5.20
2019-02-21T06:46:06.796Z,5.10
2019-02-21T06:48:36.816Z,5.20
2019-02-21T06:53:36.416Z,5.10
2019-02-21T06:56:06.466Z,5.20
2019-02-21T06:58:36.669Z,5.30
2019-02-21T07:01:06.563Z,5.20
2019-02-21T07:03:36.722Z,5.20
2019-02-21T07:06:06.699Z,5.40
2019-02-21T07:08:36.830Z,5.40
2019-02-21T07:11:08.512Z,5.50
2019-02-21T07:13:38.534Z,5.40
2019-02-21T07:16:08.616Z,5.60
2019-02-21T07:18:40.741Z,5.40
2019-02-21T07:21:10.422Z,5.40
2019-02-21T07:23:43.395Z,5.50
2019-02-21T07:26:11.969Z,5.50
2019-02-21T07:28:43.396Z,5.50
2019-02-21T07:31:13.793Z,5.60
2019-02-21T07:33:44.393Z,5.60
2019-02-21T07:36:14.456Z,5.70
2019-02-21T07:38:44.709Z,5.70
2019-02-21T07:41:18.545Z,5.80
2019-02-21T07:43:48.005Z,5.70
2019-02-21T07:46:18.256Z,5.80
2019-02-21T07:48:48.497Z,5.80
2019-02-21T07:51:18.575Z,5.80
2019-02-21T07:53:48.811Z,5.90
2019-02-21T07:56:18.927Z,5.90
2019-02-21T07:58:49.123Z,5.90
2019-02-21T08:01:19.018Z,5.90
2019-02-21T08:03:49.059Z,5.80
2019-02-21T08:06:20.132Z,5.90
2019-02-21T08:08:50.393Z,5.90
2019-02-21T08:11:20.735Z,6.00
2019-02-21T08:13:50.813Z,6.00
2019-02-21T08:16:20.868Z,6.20
2019-02-21T08:18:51.061Z,6.20
2019-02-21T08:21:21.311Z,6.40
2019-02-21T08:23:51.343Z,6.40
2019-02-21T08:26:22.378Z,6.50
2019-02-21T08:28:52.262Z,6.50
2019-02-21T08:31:22.379Z,6.60
2019-02-21T08:33:58.764Z,6.50
2019-02-21T08:36:28.675Z,6.50
2019-02-21T08:38:58.923Z,6.50
2019-02-21T08:41:28.883Z,6.60
2019-02-21T08:46:28.400Z,6.60
2019-02-21T08:48:58.574Z,6.70
2019-02-21T08:51:28.619Z,6.80
2019-02-21T08:56:30.260Z,6.80
2019-02-21T08:59:00.346Z,6.80
2019-02-21T09:01:30.495Z,6.80
2019-02-21T09:04:09.800Z,6.70
2019-02-21T09:06:32.134Z,6.60
2019-02-21T09:09:02.110Z,6.80
2019-02-21T09:11:33.988Z,6.70
2019-02-21T09:14:04.034Z,6.70
2019-02-21T09:16:34.027Z,6.80
2019-02-21T09:19:04.074Z,6.80
2019-02-21T09:21:34.117Z,6.80
2019-02-21T09:24:04.301Z,6.80
2019-02-21T09:26:34.785Z,6.90
2019-02-21T09:31:35.893Z,7.00
2019-02-21T09:34:05.914Z,7.10
2019-02-21T09:36:36.071Z,7.00
2019-02-21T09:39:06.637Z,7.10
2019-02-21T09:41:37.189Z,7.00
2019-02-21T09:44:07.273Z,7.00
2019-02-21T09:46:37.433Z,7.20
2019-02-21T09:49:07.726Z,6.80
2019-02-21T09:51:37.956Z,6.90
2019-02-21T09:54:09.136Z,6.90
2019-02-21T09:56:39.655Z,6.90
2019-02-21T09:59:10.050Z,7.00
2019-02-21T10:01:40.364Z,6.90
2019-02-21T10:04:10.702Z,7.00
2019-02-21T10:06:40.903Z,7.00
2019-02-21T10:09:11.137Z,7.00
2019-02-21T10:11:41.828Z,7.10
2019-02-21T10:14:11.881Z,7.10
2019-02-21T10:16:41.958Z,7.20
2019-02-21T10:19:13.543Z,7.30
2019-02-21T10:21:43.760Z,7.30
2019-02-21T10:24:13.928Z,7.30
2019-02-21T10:26:44.209Z,7.00
2019-02-21T10:29:15.332Z,7.30
2019-02-21T10:31:45.910Z,7.40
2019-02-21T10:34:15.931Z,7.40
2019-02-21T10:39:15.622Z,7.40
2019-02-21T10:41:45.600Z,8.20
2019-02-21T10:44:15.660Z,7.70
2019-02-21T10:46:45.804Z,7.80
2019-02-21T10:49:16.296Z,7.80
2019-02-21T10:51:46.622Z,7.90
2019-02-21T10:54:16.617Z,7.90
2019-02-21T10:56:46.800Z,7.90
2019-02-21T10:59:17.545Z,7.90
2019-02-21T11:01:47.865Z,8.00
2019-02-21T11:04:17.780Z,7.90
2019-02-21T11:06:47.869Z,7.50
2019-02-21T11:09:21.606Z,7.70
2019-02-21T11:11:51.810Z,7.50
2019-02-21T11:14:21.831Z,7.70
2019-02-21T11:16:52.201Z,8.00
2019-02-21T11:19:22.324Z,7.80
2019-02-21T11:21:52.590Z,7.80
2019-02-21T11:24:22.774Z,8.20
2019-02-21T11:26:52.932Z,7.60
2019-02-21T11:29:22.975Z,7.70
2019-02-21T11:31:53.224Z,7.50
2019-02-21T11:34:23.399Z,7.50
2019-02-21T11:36:53.590Z,7.40
2019-02-21T11:39:24.031Z,7.30
2019-02-21T11:44:23.896Z,7.50
2019-02-21T11:46:54.131Z,7.60
2019-02-21T11:49:24.259Z,7.60
2019-02-21T11:51:54.311Z,7.60
2019-02-21T11:54:27.168Z,7.30
2019-02-21T11:56:57.459Z,7.50
2019-02-21T11:59:27.595Z,7.50
2019-02-21T12:01:57.603Z,7.50
2019-02-21T12:04:27.710Z,7.50
2019-02-21T12:06:58.703Z,7.50
2019-02-21T12:09:28.841Z,7.50
2019-02-21T12:11:59.110Z,7.50
2019-02-21T12:14:29.199Z,7.50
2019-02-21T12:16:59.381Z,7.40
2019-02-21T12:19:29.383Z,7.70
2019-02-21T12:21:59.570Z,7.50
2019-02-21T12:24:29.800Z,7.80
2019-02-21T12:27:00.049Z,7.70
2019-02-21T12:29:30.470Z,7.50
2019-02-21T12:32:00.741Z,7.60
2019-02-21T12:34:31.713Z,7.50
2019-02-21T12:37:01.992Z,7.40
2019-02-21T12:39:33.001Z,7.40
2019-02-21T12:42:03.183Z,7.40
2019-02-21T12:44:33.379Z,7.40
2019-02-21T12:47:03.501Z,7.40
2019-02-21T12:49:33.726Z,7.40
2019-02-21T12:52:04.917Z,7.30
2019-02-21T12:57:04.412Z,7.40
2019-02-21T12:59:34.540Z,7.40
2019-02-21T13:02:04.644Z,7.40
2019-02-21T13:07:04.375Z,7.40
2019-02-21T13:09:34.461Z,7.40
2019-02-21T13:12:04.591Z,7.40
2019-02-21T13:17:04.331Z,7.40
2019-02-21T13:19:34.725Z,7.50
2019-02-21T13:22:04.956Z,7.50
2019-02-21T13:27:04.585Z,7.50
2019-02-21T13:32:04.605Z,7.50
2019-02-21T13:37:04.417Z,7.40
2019-02-21T13:39:34.537Z,7.40
2019-02-21T13:42:04.880Z,7.20
2019-02-21T13:47:04.690Z,7.10
2019-02-21T13:54:35.774Z,7.20
2019-02-21T13:59:36.523Z,7.30
2019-02-21T14:02:07.035Z,7.30
2019-02-21T14:04:38.388Z,7.70
2019-02-21T14:07:08.728Z,7.30
2019-02-21T14:09:38.813Z,7.10
2019-02-21T14:12:09.040Z,7.10
2019-02-21T14:14:39.137Z,6.90
2019-02-21T14:17:09.275Z,7.00
2019-02-21T14:19:39.501Z,6.90
2019-02-21T14:22:09.684Z,6.90
2019-02-21T14:24:39.832Z,7.30
2019-02-21T14:27:10.075Z,6.80
2019-02-21T14:29:40.433Z,6.80
2019-02-21T14:32:10.934Z,6.80
2019-02-21T14:34:42.275Z,6.70
2019-02-21T14:37:12.367Z,6.70
2019-02-21T14:39:42.520Z,6.70
2019-02-21T14:42:12.704Z,6.70
2019-02-21T14:44:42.833Z,6.70
2019-02-21T14:49:42.881Z,6.50
2019-02-21T14:52:13.952Z,6.60
2019-02-21T14:54:44.182Z,6.60
2019-02-21T14:57:15.380Z,6.60
2019-02-21T14:59:46.731Z,6.60
2019-02-21T15:02:16.720Z,6.60
2019-02-21T15:04:46.835Z,6.60
2019-02-21T15:07:16.965Z,6.40
2019-02-21T15:09:46.987Z,6.50
2019-02-21T15:12:17.012Z,6.40
2019-02-21T15:14:47.320Z,6.40
2019-02-21T15:17:18.588Z,6.40
2019-02-21T15:19:49.256Z,6.40
2019-02-21T15:22:19.489Z,6.40
2019-02-21T15:24:49.669Z,6.00
2019-02-21T15:27:19.990Z,6.40
2019-02-21T15:32:20.271Z,6.30
2019-02-21T15:34:50.668Z,6.30
2019-02-21T15:39:50.338Z,6.30
2019-02-21T15:42:20.358Z,6.20
2019-02-21T15:44:50.548Z,6.30
2019-02-21T15:47:20.727Z,6.20
2019-02-21T15:49:50.894Z,6.10
2019-02-21T15:52:22.666Z,6.10
2019-02-21T15:54:52.903Z,6.10
2019-02-21T15:57:23.170Z,6.20
2019-02-21T15:59:53.501Z,6.10
2019-02-21T16:02:23.811Z,6.20
2019-02-21T16:04:54.192Z,6.00
2019-02-21T16:07:24.306Z,6.10
2019-02-21T16:09:54.461Z,6.00
2019-02-21T16:12:24.736Z,6.10
2019-02-21T16:14:54.899Z,6.10
2019-02-21T16:19:54.803Z,6.00
2019-02-21T16:22:26.347Z,6.00
2019-02-21T16:24:57.729Z,6.00
2019-02-21T16:27:27.946Z,6.00
2019-02-21T16:29:58.221Z,6.00
2019-02-21T16:32:28.771Z,6.00
2019-02-21T16:34:58.906Z,6.40
2019-02-21T16:37:29.098Z,5.90
2019-02-21T16:40:01.117Z,5.90
2019-02-21T16:42:31.393Z,5.90
2019-02-21T16:45:01.541Z,5.90
2019-02-21T16:47:33.277Z,5.90
2019-02-21T16:50:03.252Z,5.90
2019-02-21T16:52:36.776Z,6.00
2019-02-21T16:55:09.855Z,5.90
2019-02-21T16:57:40.255Z,5.90
2019-02-21T17:00:13.150Z,5.90
2019-02-21T17:02:43.192Z,5.70
2019-02-21T17:05:13.725Z,5.90
2019-02-21T17:07:44.171Z,5.80
2019-02-21T17:10:17.273Z,5.80
2019-02-21T17:12:47.536Z,5.90
2019-02-21T17:15:18.490Z,5.90
2019-02-21T17:17:48.570Z,5.90
2019-02-21T17:20:20.695Z,5.90
2019-02-21T17:22:52.473Z,5.90
2019-02-21T17:25:23.984Z,5.90
2019-02-21T17:27:57.999Z,5.70
2019-02-21T17:30:29.343Z,6.00
2019-02-21T17:33:00.682Z,5.80
2019-02-21T17:35:31.889Z,5.80
2019-02-21T17:43:02.997Z,5.90
2019-02-21T17:45:33.308Z,5.90
2019-02-21T17:48:04.730Z,5.90
2019-02-21T17:50:36.874Z,5.90
2019-02-21T17:55:40.711Z,5.90
2019-02-21T18:00:42.335Z,6.50
2019-02-21T18:03:17.105Z,5.90
2019-02-21T18:08:19.819Z,5.90
2019-02-21T18:13:20.384Z,5.90
2019-02-21T18:15:50.451Z,5.90
2019-02-21T18:18:20.519Z,5.90
2019-02-21T18:20:50.742Z,5.90
2019-02-21T18:23:20.694Z,5.90
2019-02-21T18:25:53.749Z,5.90
2019-02-21T18:28:23.766Z,6.00
2019-02-21T18:33:26.666Z,6.00
2019-02-21T18:38:26.476Z,6.00
2019-02-21T18:40:56.920Z,6.00
2019-02-21T18:43:27.102Z,5.90
2019-02-21T18:45:57.702Z,5.80
2019-02-21T18:48:28.204Z,5.90
2019-02-21T18:50:58.651Z,5.80
2019-02-21T18:53:28.919Z,5.80
2019-02-21T18:55:59.369Z,5.80
2019-02-21T18:58:30.063Z,5.50
2019-02-21T19:03:31.359Z,5.50
2019-02-21T19:06:01.456Z,5.40
2019-02-21T19:08:31.475Z,5.80
2019-02-21T19:16:01.103Z,5.00
2019-02-21T19:21:00.907Z,5.30
2019-02-21T19:23:31.070Z,5.00
2019-02-21T19:26:01.150Z,5.20
2019-02-21T19:33:33.674Z,4.80
2019-02-21T19:36:05.329Z,4.70
2019-02-21T19:41:05.040Z,4.50
2019-02-21T19:46:04.570Z,4.40
2019-02-21T19:48:34.561Z,4.30
2019-02-21T19:51:05.129Z,4.30
2019-02-21T19:53:35.339Z,4.20
2019-02-21T19:56:05.519Z,4.10
2019-02-21T19:58:36.606Z,4.20
2019-02-21T20:01:06.740Z,4.00
2019-02-21T20:03:40.853Z,4.10
2019-02-21T20:06:13.247Z,4.10
2019-02-21T20:08:48.725Z,4.10
2019-02-21T20:11:18.773Z,4.60
2019-02-21T20:13:49.040Z,3.90
2019-02-21T20:18:49.085Z,3.80
2019-02-21T20:21:19.223Z,4.20
2019-02-21T20:23:52.113Z,3.70
2019-02-21T20:26:24.783Z,3.70
2019-02-21T20:28:56.114Z,3.60
2019-02-21T20:31:26.669Z,3.70
2019-02-21T20:33:57.705Z,3.60
2019-02-21T20:36:30.248Z,3.50
2019-02-21T20:39:04.196Z,3.50
2019-02-21T20:46:40.231Z,3.40
2019-02-21T20:49:10.350Z,3.30
2019-02-21T20:51:40.879Z,3.20
2019-02-21T20:54:12.883Z,3.30
2019-02-21T20:56:48.084Z,3.20
2019-02-21T20:59:22.958Z,3.30
2019-02-21T21:01:53.379Z,3.00
2019-02-21T21:04:23.690Z,3.00
2019-02-21T21:06:54.722Z,2.90
2019-02-21T21:09:25.247Z,2.90
2019-02-21T21:11:55.353Z,2.50
2019-02-21T21:14:26.832Z,2.70
2019-02-21T21:16:58.028Z,2.60
2019-02-21T21:19:29.633Z,2.50
2019-02-21T21:22:01.212Z,2.40
2019-02-21T21:24:32.504Z,2.30
2019-02-21T21:27:02.740Z,2.30
2019-02-21T21:29:33.134Z,2.00
2019-02-21T21:32:05.885Z,2.00
2019-02-21T21:34:35.887Z,1.80
2019-02-21T21:37:05.992Z,1.70
2019-02-21T21:42:08.255Z,1.70
2019-02-21T21:44:38.171Z,1.60
2019-02-21T21:47:08.306Z,2.30
2019-02-21T21:49:38.638Z,1.60
2019-02-21T21:52:08.759Z,1.20
2019-02-21T21:54:39.019Z,1.40
2019-02-21T21:57:09.191Z,1.30
2019-02-21T21:59:39.479Z,1.40
2019-02-21T22:02:09.842Z,1.30
2019-02-21T22:04:41.071Z,1.20
2019-02-21T22:09:40.666Z,1.30
2019-02-21T22:12:11.966Z,1.10
2019-02-21T22:14:42.151Z,1.00
2019-02-21T22:17:13.713Z,0.90
2019-02-21T22:19:44.179Z,0.90
2019-02-21T22:22:14.581Z,1.10
2019-02-21T22:24:44.924Z,1.00
2019-02-21T22:27:15.045Z,0.90
2019-02-21T22:29:45.369Z,1.50
2019-02-21T22:32:15.713Z,0.90
2019-02-21T22:34:45.861Z,1.10
2019-02-21T22:37:16.194Z,0.70
2019-02-21T22:39:46.372Z,0.80
2019-02-21T22:42:16.654Z,0.80
2019-02-21T22:44:46.635Z,0.70
2019-02-21T22:47:17.871Z,0.60
2019-02-21T22:49:48.192Z,0.70
2019-02-21T22:54:48.416Z,0.50
2019-02-21T22:57:18.664Z,0.60
2019-02-21T22:59:48.963Z,0.50
2019-02-21T23:02:19.860Z,0.50
2019-02-21T23:04:53.039Z,0.40
2019-02-21T23:07:26.108Z,0.60
2019-02-21T23:09:56.255Z,0.40
2019-02-21T23:12:27.542Z,0.50
2019-02-21T23:14:59.154Z,0.30
2019-02-21T23:17:29.484Z,0.30
2019-02-21T23:19:59.695Z,0.50
2019-02-21T23:22:29.623Z,0.30
2019-02-21T23:24:59.784Z,0.30
2019-02-21T23:27:29.728Z,0.40
2019-02-21T23:30:00.293Z,0.30
2019-02-21T23:32:31.632Z,0.50
2019-02-21T23:35:01.829Z,0.40
2019-02-21T23:37:32.046Z,0.20
2019-02-21T23:40:02.195Z,0.30
2019-02-21T23:42:32.769Z,0.20
2019-02-21T23:45:03.148Z,0.10
2019-02-21T23:47:33.333Z,0.10
2019-02-21T23:50:03.555Z,0.10
2019-02-21T23:55:05.621Z,-0.20
2019-02-21T23:57:35.897Z,-0.30
